Time;durP1;ratioP1;P1;durP2;ratioP2;P2;SDS_P1;SDS_P2;PMS_P1;PMS_P2;Temp;Humidity;BMP_temperature;BMP_pressure;BME280_temperature;BME280_humidity;BME280_pressure;Samples;Min_cycle;Max_cycle;Signal;HPM_P1;HPM_P2
2023/08/11 00:02:50;;;;;;;6.38;2.78;;;22.10;99.90;;;;;;5050731;28;20047;-71
2023/08/11 00:06:16;;;;;;;5.70;2.53;;;22.20;99.90;;;;;;5050673;28;20376;-72
2023/08/11 00:09:20;;;;;;;6.90;2.78;;;22.10;99.90;;;;;;5050908;28;20103;-72
2023/08/11 00:12:24;;;;;;;5.15;2.70;;;21.80;99.90;;;;;;5051924;28;20199;-72
2023/08/11 00:15:31;;;;;;;3.63;2.38;;;21.70;99.90;;;;;;5050742;28;20056;-72
2023/08/11 00:18:34;;;;;;;6.65;2.90;;;21.70;99.90;;;;;;5050467;28;20033;-71
2023/08/11 00:21:57;;;;;;;4.13;2.10;;;21.70;99.90;;;;;;5050346;28;20040;-71
2023/08/11 00:25:19;;;;;;;5.85;2.60;;;21.70;99.90;;;;;;5050019;28;20044;-71
2023/08/11 00:28:23;;;;;;;9.77;3.13;;;21.60;99.90;;;;;;5050685;28;20041;-72
2023/08/11 00:31:28;;;;;;;6.03;3.25;;;21.60;99.90;;;;;;5049260;28;20052;-71
2023/08/11 00:34:32;;;;;;;4.63;2.85;;;21.50;99.90;;;;;;5050277;28;20044;-71
2023/08/11 00:37:35;;;;;;;5.85;2.30;;;21.40;99.90;;;;;;5049798;28;20042;-71
2023/08/11 00:40:58;;;;;;;6.45;3.20;;;21.20;99.90;;;;;;5049947;28;20031;-72
2023/08/11 00:44:21;;;;;;;7.18;3.75;;;21.20;99.90;;;;;;5050229;28;20045;-71
2023/08/11 00:51:45;;;;;;;7.97;2.83;;;21.20;99.90;;;;;;5050437;28;20053;-71
2023/08/11 00:54:52;;;;;;;7.67;3.20;;;21.10;99.90;;;;;;5048286;28;20064;-71
2023/08/11 00:57:56;;;;;;;7.68;2.97;;;21.10;99.90;;;;;;5053219;28;20041;-71
2023/08/11 01:00:59;;;;;;;5.97;2.72;;;21.10;99.90;;;;;;5059005;28;20040;-71
2023/08/11 01:04:22;;;;;;;8.05;3.00;;;21.10;99.90;;;;;;5054247;28;20044;-71
2023/08/11 01:08:23;;;;;;;7.33;2.77;;;21.20;99.90;;;;;;5054299;28;20507;-72
2023/08/11 01:11:49;;;;;;;9.02;2.85;;;21.20;99.90;;;;;;5053916;28;20029;-71
2023/08/11 01:15:26;;;;;;;5.13;2.60;;;21.20;99.90;;;;;;5044391;28;20052;-71
2023/08/11 01:18:30;;;;;;;10.70;2.65;;;21.20;99.90;;;;;;5034164;28;20041;-71
2023/08/11 01:21:39;;;;;;;6.55;2.80;;;21.20;99.90;;;;;;5046273;28;20056;-71
2023/08/11 01:24:44;;;;;;;5.80;2.80;;;21.20;99.90;;;;;;5054174;28;20068;-71
2023/08/11 01:28:27;;;;;;;7.90;3.00;;;21.30;99.90;;;;;;5053795;28;20044;-71
2023/08/11 01:31:31;;;;;;;4.93;2.63;;;21.20;99.90;;;;;;5053643;28;20052;-71
2023/08/11 01:34:35;;;;;;;5.95;2.70;;;21.20;99.90;;;;;;5053403;28;20051;-71
2023/08/11 01:37:59;;;;;;;6.07;3.00;;;21.20;99.90;;;;;;5052855;28;20041;-71
2023/08/11 01:41:21;;;;;;;6.07;2.88;;;21.20;99.90;;;;;;5053244;28;20033;-71
2023/08/11 01:44:26;;;;;;;7.28;2.80;;;21.10;99.90;;;;;;5053397;28;20044;-71
2023/08/11 01:47:30;;;;;;;7.78;3.28;;;21.10;99.90;;;;;;5053538;28;20494;-71
2023/08/11 01:50:53;;;;;;;7.55;3.00;;;21.00;99.90;;;;;;5053346;28;20052;-71
2023/08/11 01:53:57;;;;;;;6.53;3.13;;;20.90;99.90;;;;;;5049875;28;20056;-71
2023/08/11 01:57:01;;;;;;;6.63;2.80;;;20.90;99.90;;;;;;5053261;28;20040;-71
2023/08/11 02:00:09;;;;;;;5.28;2.80;;;20.90;99.90;;;;;;5053351;28;20040;-71
2023/08/11 02:03:18;;;;;;;7.72;2.88;;;20.90;99.90;;;;;;5052832;28;20049;-71
2023/08/11 02:06:40;;;;;;;7.10;3.15;;;20.90;99.90;;;;;;5052769;28;20049;-71
2023/08/11 02:10:22;;;;;;;8.15;3.20;;;20.80;99.90;;;;;;5052054;28;20037;-71
2023/08/11 02:13:28;;;;;;;4.22;2.92;;;20.80;99.90;;;;;;5051923;28;20514;-71
2023/08/11 02:16:37;;;;;;;5.95;2.83;;;20.70;99.90;;;;;;5063706;28;20522;-71
2023/08/11 02:20:22;;;;;;;6.75;2.72;;;20.60;99.90;;;;;;5072854;28;20499;-71
2023/08/11 02:23:26;;;;;;;6.53;3.25;;;20.50;99.90;;;;;;5072069;28;20395;-71
2023/08/11 02:26:30;;;;;;;5.03;2.83;;;20.50;99.90;;;;;;5072717;28;20044;-71
2023/08/11 02:29:36;;;;;;;6.47;3.00;;;20.40;99.90;;;;;;5071734;28;20049;-71
2023/08/11 02:32:41;;;;;;;6.40;2.95;;;20.40;99.90;;;;;;5072267;28;20040;-71
2023/08/11 02:36:04;;;;;;;6.93;3.50;;;20.40;99.90;;;;;;5072588;28;20061;-71
2023/08/11 02:39:08;;;;;;;6.40;3.38;;;20.40;99.90;;;;;;5072443;28;20589;-71
2023/08/11 02:42:13;;;;;;;6.15;3.10;;;20.40;99.90;;;;;;5071374;28;20052;-71
2023/08/11 02:45:37;;;;;;;4.70;2.97;;;20.30;99.90;;;;;;5071607;28;20029;-71
2023/08/11 02:48:59;;;;;;;7.30;3.28;;;20.20;99.90;;;;;;5072071;28;20052;-71
2023/08/11 02:52:04;;;;;;;6.75;3.20;;;20.10;99.90;;;;;;5071995;28;20055;-71
2023/08/11 02:55:09;;;;;;;4.93;3.33;;;19.90;99.90;;;;;;5070746;28;20266;-71
2023/08/11 03:01:54;;;;;;;9.23;3.83;;;19.70;99.90;;;;;;5071685;28;20052;-71
2023/08/11 03:09:17;;;;;;;8.88;3.47;;;19.60;99.90;;;;;;5071737;28;20067;-72
2023/08/11 03:16:03;;;;;;;8.32;3.65;;;19.40;99.90;;;;;;5071088;28;20275;-71
2023/08/11 03:19:07;;;;;;;10.15;3.47;;;19.40;99.90;;;;;;5070850;28;20047;-71
2023/08/11 03:22:12;;;;;;;10.57;3.90;;;19.40;99.90;;;;;;5071391;28;20047;-71
2023/08/11 03:25:17;;;;;;;5.82;3.22;;;19.40;99.90;;;;;;5070466;28;20048;-71
2023/08/11 03:28:40;;;;;;;9.35;4.00;;;19.30;99.90;;;;;;5064823;28;20036;-71
2023/08/11 03:32:04;;;;;;;6.80;3.58;;;19.30;99.90;;;;;;5058595;28;20036;-71
2023/08/11 03:35:09;;;;;;;7.53;4.07;;;19.30;99.90;;;;;;5049967;28;20037;-72
2023/08/11 03:38:13;;;;;;;7.65;3.60;;;19.30;99.90;;;;;;5050777;28;20047;-71
2023/08/11 03:44:41;;;;;;;4.85;3.35;;;19.30;99.90;;;;;;5050457;28;20071;-71
2023/08/11 03:47:45;;;;;;;10.02;4.30;;;19.30;99.90;;;;;;5038976;28;20040;-71
2023/08/11 03:51:18;;;;;;;10.95;4.20;;;19.30;99.90;;;;;;5050391;28;20048;-72
2023/08/11 03:54:22;;;;;;;5.78;3.08;;;19.30;99.90;;;;;;5050897;28;20055;-71
2023/08/11 03:57:26;;;;;;;5.80;3.13;;;19.30;99.90;;;;;;5051192;28;20048;-71
2023/08/11 04:00:31;;;;;;;9.23;3.42;;;19.40;99.90;;;;;;5050146;28;20067;-71
2023/08/11 04:03:43;;;;;;;12.00;4.82;;;19.30;99.90;;;;;;5049728;28;20037;-71
2023/08/11 04:07:05;;;;;;;7.55;3.92;;;19.40;99.90;;;;;;5049995;28;20040;-71
2023/08/11 04:10:12;;;;;;;7.75;3.55;;;19.40;99.90;;;;;;5049925;28;20037;-71
2023/08/11 04:13:35;;;;;;;9.68;3.78;;;19.40;99.90;;;;;;5050441;28;20040;-71
2023/08/11 04:16:57;;;;;;;6.13;3.38;;;19.40;99.90;;;;;;5050451;28;20502;-71
2023/08/11 04:20:11;;;;;;;9.13;4.50;;;19.30;99.90;;;;;;5050795;28;20392;-71
2023/08/11 04:23:34;;;;;;;;;;;19.30;99.90;;;;;;5050876;28;20510;-71
2023/08/11 04:26:38;;;;;;;8.02;3.17;;;19.30;99.90;;;;;;5049730;28;19915;-71
2023/08/11 04:29:42;;;;;;;7.85;3.60;;;19.40;99.90;;;;;;5049714;28;20052;-71
2023/08/11 04:33:05;;;;;;;4.97;3.17;;;19.40;99.90;;;;;;5050299;28;20043;-71
2023/08/11 04:36:13;;;;;;;5.05;2.95;;;19.50;99.90;;;;;;5050551;28;20037;-72
2023/08/11 04:39:17;;;;;;;6.53;2.75;;;19.60;99.90;;;;;;5049673;28;20052;-72
2023/08/11 04:42:22;;;;;;;9.40;3.75;;;19.70;99.90;;;;;;5049731;28;20049;-71
2023/08/11 04:45:27;;;;;;;5.80;3.30;;;19.80;99.90;;;;;;5056907;28;20465;-71
2023/08/11 04:52:13;;;;;;;6.72;2.97;;;20.00;99.90;;;;;;5050966;28;20380;-71
2023/08/11 04:55:17;;;;;;;5.32;3.10;;;19.90;99.90;;;;;;5050398;28;20045;-71
2023/08/11 05:02:04;;;;;;;;;;;19.90;99.90;;;;;;5070907;28;20040;-71
2023/08/11 05:05:09;;;;;;;6.72;3.65;;;20.00;99.90;;;;;;5069978;28;19923;-71
2023/08/11 05:08:13;;;;;;;5.85;3.13;;;19.60;99.90;;;;;;5070588;28;20047;-71
2023/08/11 05:14:59;;;;;;;6.35;3.00;;;21.40;99.90;;;;;;5069940;28;20040;-71
2023/08/11 05:18:03;;;;;;;8.02;3.10;;;24.00;99.90;;;;;;5069922;28;20058;-72
2023/08/11 05:21:07;;;;;;;6.72;3.22;;;25.60;99.90;;;;;;5069868;28;20044;-72
2023/08/11 05:24:30;;;;;;;7.07;3.20;;;26.40;99.90;;;;;;5069891;28;20047;-71
2023/08/11 05:27:53;;;;;;;11.23;2.97;;;26.70;99.90;;;;;;5069769;28;20032;-71
2023/08/11 05:31:16;;;;;;;11.45;3.20;;;27.50;99.90;;;;;;5069838;28;20077;-71
2023/08/11 05:34:20;;;;;;;5.93;2.70;;;28.80;99.90;;;;;;5070226;28;20051;-71
2023/08/11 05:37:43;;;;;;;5.88;2.90;;;29.60;99.90;;;;;;5047701;28;20053;-71
2023/08/11 05:44:47;;;;;;;6.50;3.05;;;30.70;98.70;;;;;;5053630;28;20052;-71
2023/08/11 05:47:51;;;;;;;5.82;3.08;;;31.00;97.90;;;;;;5050061;28;20044;-71
2023/08/11 05:50:55;;;;;;;6.65;3.10;;;31.30;97.30;;;;;;5053788;28;20052;-71
2023/08/11 05:54:00;;;;;;;7.85;3.40;;;31.40;96.60;;;;;;5052740;28;20053;-71
2023/08/11 05:57:05;;;;;;;7.22;3.20;;;31.10;96.70;;;;;;5050991;28;20049;-71
2023/08/11 06:00:29;;;;;;;5.53;3.03;;;31.10;96.20;;;;;;5049143;28;20057;-72
2023/08/11 06:03:33;;;;;;;7.50;2.63;;;31.40;95.80;;;;;;5052689;28;20052;-71
2023/08/11 06:06:37;;;;;;;8.60;3.58;;;30.70;95.80;;;;;;5053311;28;20376;-71
2023/08/11 06:09:41;;;;;;;5.90;3.05;;;31.00;95.60;;;;;;5046498;28;20060;-71
2023/08/11 06:13:04;;;;;;;5.03;2.70;;;32.00;94.90;;;;;;5050302;28;20049;-71
2023/08/11 06:16:28;;;;;;;4.65;2.90;;;31.60;94.90;;;;;;5044977;28;20476;-72
2023/08/11 06:19:50;;;;;;;5.63;2.60;;;32.20;94.30;;;;;;5045881;28;20045;-72
2023/08/11 06:23:13;;;;;;;5.43;2.25;;;32.00;93.50;;;;;;5052786;28;20499;-72
2023/08/11 06:26:17;;;;;;;6.78;2.80;;;32.20;93.10;;;;;;5052085;28;20051;-72
2023/08/11 06:29:21;;;;;;;6.63;2.60;;;32.40;93.70;;;;;;5053030;28;20037;-72
2023/08/11 06:32:25;;;;;;;5.00;2.58;;;32.60;93.50;;;;;;5051564;28;20037;-72
2023/08/11 06:35:29;;;;;;;10.95;3.22;;;32.80;93.40;;;;;;5032715;28;20045;-72
2023/08/11 06:38:34;;;;;;;6.00;2.83;;;31.50;93.40;;;;;;5032458;28;20416;-72
2023/08/11 06:41:56;;;;;;;6.47;2.45;;;30.30;94.30;;;;;;5032556;28;20050;-71
2023/08/11 06:45:38;;;;;;;10.63;2.70;;;30.40;95.20;;;;;;5032079;28;20048;-72
2023/08/11 06:49:01;;;;;;;7.95;2.40;;;29.00;95.70;;;;;;5034427;28;20044;-72
2023/08/11 06:52:05;;;;;;;13.27;2.70;;;29.50;95.40;;;;;;5046808;28;20032;-72
2023/08/11 06:55:46;;;;;;;8.20;2.47;;;30.80;94.70;;;;;;5046148;28;20040;-72
2023/08/11 06:59:28;;;;;;;4.10;2.13;;;31.90;93.60;;;;;;5040022;28;20044;-72
2023/08/11 07:02:33;;;;;;;6.15;2.50;;;33.00;92.60;;;;;;5045031;28;20052;-72
2023/08/11 07:05:55;;;;;;;5.78;2.33;;;33.40;92.10;;;;;;5034215;28;20041;-71
2023/08/11 07:08:59;;;;;;;6.45;2.50;;;34.10;91.80;;;;;;5052149;28;20049;-72
2023/08/11 07:12:04;;;;;;;4.82;2.30;;;33.90;91.40;;;;;;5046572;28;20074;-72
2023/08/11 07:15:09;;;;;;;5.78;2.00;;;34.30;91.20;;;;;;5058772;28;20191;-72
2023/08/11 07:18:13;;;;;;;6.68;2.03;;;34.70;90.70;;;;;;5070556;28;20044;-72
2023/08/11 07:21:36;;;;;;;6.35;2.10;;;35.40;90.10;;;;;;5045003;28;20060;-72
2023/08/11 07:24:41;;;;;;;5.78;2.40;;;34.40;90.40;;;;;;5044439;28;20044;-73
2023/08/11 07:28:03;;;;;;;6.35;2.67;;;34.40;90.70;;;;;;5047953;28;20045;-73
2023/08/11 07:31:26;;;;;;;8.02;2.90;;;32.50;91.30;;;;;;5044123;28;20048;-72
2023/08/11 07:34:30;;;;;;;7.60;2.55;;;33.10;91.70;;;;;;5031070;28;20053;-72
2023/08/11 07:37:52;;;;;;;6.13;2.63;;;33.10;91.50;;;;;;5049725;28;20044;-74
2023/08/11 07:40:56;;;;;;;7.38;2.40;;;34.10;90.20;;;;;;5038880;28;20500;-72
2023/08/11 07:44:00;;;;;;;6.72;2.90;;;35.10;90.30;;;;;;5042582;28;20365;-72
2023/08/11 07:47:05;;;;;;;5.95;2.30;;;36.30;89.00;;;;;;5048386;28;20386;-71
2023/08/11 07:50:09;;;;;;;8.50;3.13;;;36.60;87.30;;;;;;5035214;28;20041;-71
2023/08/11 07:53:13;;;;;;;5.72;2.92;;;36.00;87.30;;;;;;5033542;28;20033;-72
2023/08/11 07:59:40;;;;;;;4.97;2.35;;;37.30;85.40;;;;;;5049000;28;20040;-72
2023/08/11 08:03:04;;;;;;;4.55;2.20;;;37.50;84.90;;;;;;5046805;28;20044;-72
2023/08/11 08:06:08;;;;;;;4.50;2.35;;;38.10;84.20;;;;;;5046751;28;20396;-73
2023/08/11 08:09:33;;;;;;;5.28;2.08;;;37.50;84.10;;;;;;5038223;28;20039;-73
2023/08/11 08:12:38;;;;;;;6.88;2.42;;;35.60;83.70;;;;;;5038921;28;20043;-73
2023/08/11 08:15:42;;;;;;;3.92;2.20;;;36.50;84.90;;;;;;5042457;28;20466;-72
2023/08/11 08:19:05;;;;;;;5.80;2.22;;;36.10;84.70;;;;;;5039183;28;20052;-73
2023/08/11 08:22:09;;;;;;;3.28;1.65;;;37.70;81.10;;;;;;5049604;28;20033;-71
2023/08/11 08:25:14;;;;;;;2.25;1.65;;;38.10;78.60;;;;;;5035534;28;20048;-72
2023/08/11 08:28:37;;;;;;;4.75;1.90;;;39.80;78.50;;;;;;5044153;28;20041;-71
2023/08/11 08:31:41;;;;;;;3.17;1.40;;;40.70;77.40;;;;;;5054841;28;20041;-72
2023/08/11 08:34:46;;;;;;;3.20;1.88;;;39.90;75.50;;;;;;5043284;28;20045;-72
2023/08/11 08:37:50;;;;;;;4.43;1.88;;;39.10;77.00;;;;;;5044645;28;20063;-72
2023/08/11 08:40:55;;;;;;;5.13;1.80;;;39.20;75.90;;;;;;5030590;28;20045;-72
2023/08/11 08:44:19;;;;;;;9.48;2.15;;;39.90;76.20;;;;;;5037384;28;20484;-72
2023/08/11 08:47:42;;;;;;;4.70;1.70;;;39.60;75.40;;;;;;5031238;28;20050;-71
2023/08/11 08:54:28;;;;;;;5.18;1.73;;;38.70;75.30;;;;;;5047059;28;20032;-72
2023/08/11 08:57:32;;;;;;;2.67;1.63;;;40.40;75.50;;;;;;5034440;28;20031;-71
2023/08/11 09:00:37;;;;;;;4.40;1.80;;;39.90;76.20;;;;;;5047903;28;20036;-72
2023/08/11 09:03:45;;;;;;;3.75;1.40;;;41.90;74.60;;;;;;5041101;28;20044;-72
2023/08/11 09:06:53;;;;;;;3.97;1.70;;;39.60;74.00;;;;;;5046004;28;20029;-72
2023/08/11 09:10:16;;;;;;;3.20;1.60;;;39.70;74.80;;;;;;5046882;28;20037;-72
2023/08/11 09:13:21;;;;;;;4.28;1.88;;;39.30;76.10;;;;;;5040350;28;20423;-70
2023/08/11 09:16:25;;;;;;;5.22;1.92;;;42.10;74.10;;;;;;5043808;28;20037;-71
2023/08/11 09:19:51;;;;;;;3.78;1.90;;;43.70;72.30;;;;;;5050035;28;20037;-72
2023/08/11 09:23:15;;;;;;;4.45;2.33;;;43.60;70.10;;;;;;5049335;28;20043;-73
2023/08/11 09:26:21;;;;;;;4.63;1.50;;;41.40;71.40;;;;;;5050644;28;20048;-71
2023/08/11 09:29:43;;;;;;;2.70;1.70;;;40.30;71.10;;;;;;5050665;28;20052;-71
2023/08/11 09:33:07;;;;;;;2.60;1.40;;;43.30;70.60;;;;;;5043182;28;20051;-71
2023/08/11 09:36:11;;;;;;;3.97;1.65;;;44.80;69.00;;;;;;5050131;28;20060;-71
2023/08/11 09:39:36;;;;;;;4.90;1.50;;;42.40;70.50;;;;;;5046296;28;20052;-72
2023/08/11 09:42:41;;;;;;;2.25;1.50;;;42.80;69.20;;;;;;5044451;28;20041;-71
2023/08/11 09:45:45;;;;;;;2.63;1.30;;;45.50;68.40;;;;;;5059537;28;20071;-71
2023/08/11 09:48:49;;;;;;;8.48;1.70;;;48.00;64.70;;;;;;5037560;28;20501;-73
2023/08/11 09:52:01;;;;;;;6.65;1.60;;;48.00;65.40;;;;;;5044930;28;20045;-74
2023/08/11 09:55:08;;;;;;;7.38;1.30;;;49.20;64.00;;;;;;5037008;28;20041;-73
2023/08/11 09:58:14;;;;;;;2.63;1.38;;;49.70;62.20;;;;;;5049307;28;20037;-72
2023/08/11 10:01:41;;;;;;;3.03;1.40;;;46.80;62.60;;;;;;5035216;28;20133;-72
2023/08/11 10:04:56;;;;;;;1.98;1.30;;;44.90;63.60;;;;;;5043813;28;20675;-72
2023/08/11 10:08:05;;;;;;;2.92;1.85;;;46.60;64.20;;;;;;5043212;28;20594;-73
2023/08/11 10:14:34;;;;;;;5.45;1.50;;;43.40;61.30;;;;;;5048675;28;20048;-71
2023/08/11 10:17:58;;;;;;;5.53;1.50;;;41.40;64.10;;;;;;5052978;28;20471;-72
2023/08/11 10:21:03;;;;;;;3.03;1.67;;;42.70;64.90;;;;;;5045773;28;20044;-72
2023/08/11 10:24:26;;;;;;;8.15;2.00;;;44.40;63.80;;;;;;5051165;28;20048;-72
2023/08/11 10:27:51;;;;;;;3.20;1.45;;;46.30;63.00;;;;;;5051344;28;20052;-71
2023/08/11 10:31:00;;;;;;;3.35;1.55;;;47.10;62.50;;;;;;5050233;28;20044;-72
2023/08/11 10:34:06;;;;;;;5.75;1.60;;;48.10;60.70;;;;;;5046592;28;20044;-72
2023/08/11 10:37:10;;;;;;;4.60;1.35;;;49.40;60.40;;;;;;5053165;28;20063;-73
2023/08/11 10:40:34;;;;;;;3.55;1.50;;;50.10;59.00;;;;;;5051718;28;20033;-74
2023/08/11 10:43:41;;;;;;;2.53;1.70;;;46.30;60.00;;;;;;5042537;28;20044;-73
2023/08/11 10:46:48;;;;;;;2.80;1.30;;;40.60;63.90;;;;;;5048243;28;20056;-74
2023/08/11 10:50:15;;;;;;;3.83;1.60;;;43.50;64.50;;;;;;5046405;28;20040;-74
2023/08/11 10:53:21;;;;;;;3.05;1.50;;;42.90;63.40;;;;;;5050291;28;20045;-73
2023/08/11 10:56:31;;;;;;;2.97;1.70;;;45.60;62.00;;;;;;5046252;28;20040;-73
2023/08/11 10:59:38;;;;;;;2.88;1.55;;;45.50;60.70;;;;;;5054712;28;20361;-72
2023/08/11 11:02:42;;;;;;;4.53;1.40;;;44.30;62.40;;;;;;5053424;28;20486;-73
2023/08/11 11:05:46;;;;;;;5.68;1.60;;;43.10;61.90;;;;;;5044677;28;20040;-74
2023/08/11 11:09:09;;;;;;;4.53;1.80;;;43.20;62.40;;;;;;5052489;28;20732;-74
2023/08/11 11:12:14;;;;;;;4.65;1.90;;;42.70;61.90;;;;;;5045009;28;20044;-72
2023/08/11 11:15:18;;;;;;;3.05;1.30;;;45.20;62.60;;;;;;5051748;28;20047;-71
2023/08/11 11:18:22;;;;;;;4.05;1.35;;;47.00;60.10;;;;;;5052090;28;20416;-71
2023/08/11 11:21:45;;;;;;;4.75;1.52;;;48.40;59.40;;;;;;5042902;28;20028;-69
2023/08/11 11:25:07;;;;;;;3.55;1.60;;;46.70;60.60;;;;;;5051168;28;20048;-72
2023/08/11 11:28:12;;;;;;;2.53;1.33;;;47.40;60.20;;;;;;5049646;28;20029;-71
2023/08/11 11:31:53;;;;;;;2.90;1.52;;;48.60;59.40;;;;;;5047483;28;20044;-73
2023/08/11 11:34:58;;;;;;;3.13;1.50;;;49.50;58.50;;;;;;5037719;28;20033;-71
2023/08/11 11:38:03;;;;;;;2.78;1.52;;;45.70;59.60;;;;;;5047248;28;20048;-72
2023/08/11 11:41:11;;;;;;;4.75;1.58;;;47.00;60.20;;;;;;5039941;28;20041;-72
2023/08/11 11:44:18;;;;;;;3.03;1.33;;;47.20;59.30;;;;;;5031412;28;20384;-72
2023/08/11 11:47:41;;;;;;;3.55;1.45;;;46.20;59.90;;;;;;5035061;28;20056;-74
2023/08/11 11:50:46;;;;;;;4.10;1.63;;;43.40;63.30;;;;;;5050847;28;20047;-73
2023/08/11 11:57:50;;;;;;;2.53;1.60;;;46.00;61.90;;;;;;5046261;28;20242;-73
2023/08/11 12:05:14;;;;;;;4.10;1.45;;;49.50;58.70;;;;;;5042843;28;20041;-72
2023/08/11 12:08:20;;;;;;;5.30;1.40;;;47.90;59.80;;;;;;5037196;28;20033;-71
2023/08/11 12:11:27;;;;;;;5.22;1.35;;;48.00;59.60;;;;;;5048233;28;20045;-74
2023/08/11 12:14:52;;;;;;;2.38;1.40;;;47.10;59.60;;;;;;5045659;28;20045;-73
2023/08/11 12:17:58;;;;;;;3.92;1.90;;;42.00;62.80;;;;;;5057426;28;20037;-74
2023/08/11 12:21:03;;;;;;;5.07;1.50;;;40.40;64.80;;;;;;5050139;28;20025;-72
2023/08/11 12:24:13;;;;;;;4.10;1.80;;;42.10;64.00;;;;;;5050518;28;20072;-72
2023/08/11 12:27:17;;;;;;;3.17;1.70;;;41.10;63.30;;;;;;5034993;28;20061;-72
2023/08/11 12:30:22;;;;;;;5.22;1.60;;;41.10;65.00;;;;;;5032101;28;20033;-72
2023/08/11 12:33:45;;;;;;;5.05;1.58;;;43.40;63.70;;;;;;5031593;28;20049;-73
2023/08/11 12:36:49;;;;;;;5.97;1.67;;;44.90;62.10;;;;;;5048763;28;20048;-73
2023/08/11 12:39:53;;;;;;;5.05;1.80;;;45.00;61.00;;;;;;5036917;28;20041;-73
2023/08/11 12:43:16;;;;;;;2.17;1.48;;;43.30;61.70;;;;;;5031001;28;20029;-72
2023/08/11 12:49:44;;;;;;;5.20;2.28;;;37.40;67.50;;;;;;5047193;28;20037;-72
2023/08/11 12:52:48;;;;;;;7.68;1.98;;;35.30;70.50;;;;;;5044700;28;20044;-72
2023/08/11 12:56:11;;;;;;;3.78;1.63;;;36.40;70.80;;;;;;5051019;28;20039;-71
2023/08/11 12:59:34;;;;;;;3.88;1.80;;;39.20;67.90;;;;;;5050909;28;20040;-74
2023/08/11 13:06:00;;;;;;;3.35;1.83;;;39.30;66.50;;;;;;5049379;28;20046;-72
2023/08/11 13:09:07;;;;;;;4.03;1.52;;;40.10;67.00;;;;;;5034415;28;20037;-72
2023/08/11 13:12:12;;;;;;;2.33;1.40;;;40.60;66.80;;;;;;5048323;28;20404;-74
2023/08/11 13:15:16;;;;;;;3.25;1.60;;;40.80;66.30;;;;;;5034208;28;20045;-72
2023/08/11 13:18:20;;;;;;;3.97;1.67;;;39.40;66.70;;;;;;5034088;28;20037;-73
2023/08/11 13:24:47;;;;;;;11.52;2.17;;;40.30;66.80;;;;;;5051687;28;20037;-72
2023/08/11 13:27:52;;;;;;;3.80;1.73;;;40.30;67.20;;;;;;5044455;28;20036;-73
2023/08/11 13:30:56;;;;;;;2.85;1.55;;;40.70;65.70;;;;;;5060062;28;20037;-73
2023/08/11 13:34:00;;;;;;;6.43;1.58;;;41.20;64.20;;;;;;5070028;28;20041;-75
2023/08/11 13:37:23;;;;;;;2.80;1.50;;;41.80;64.00;;;;;;5073039;28;20234;-75
2023/08/11 13:40:47;;;;;;;3.50;1.85;;;42.30;63.40;;;;;;5072640;28;20362;-71
2023/08/11 13:43:52;;;;;;;2.38;1.48;;;42.40;62.80;;;;;;5057935;28;20036;-72
2023/08/11 13:47:14;;;;;;;6.75;1.90;;;42.00;63.50;;;;;;5052824;28;20056;-73
2023/08/11 13:50:18;;;;;;;3.75;1.40;;;42.00;63.20;;;;;;5051775;28;20044;-73
2023/08/11 14:00:49;;;;;;;6.97;1.60;;;42.10;63.20;;;;;;5051181;28;20411;-73
2023/08/11 14:04:12;;;;;;;3.42;1.65;;;42.20;62.40;;;;;;5052059;28;20634;-72
2023/08/11 14:16:25;;;;;;;3.95;1.58;;;40.40;63.20;;;;;;5048312;28;20040;-72
2023/08/11 14:19:29;;;;;;;4.97;1.85;;;39.80;64.90;;;;;;5053208;28;20048;-73
2023/08/11 14:22:52;;;;;;;2.15;1.50;;;39.90;64.70;;;;;;5052682;28;20483;-74
2023/08/11 14:29:18;;;;;;;4.43;1.45;;;39.50;65.20;;;;;;5052869;28;20061;-74
2023/08/11 14:32:40;;;;;;;5.32;1.52;;;39.20;66.20;;;;;;5052465;28;20049;-74
2023/08/11 14:35:44;;;;;;;3.35;1.50;;;38.90;66.50;;;;;;5051806;28;20059;-74
2023/08/11 14:38:48;;;;;;;6.90;1.75;;;39.20;66.30;;;;;;5052621;28;20045;-73
2023/08/11 14:49:15;;;;;;;2.13;1.33;;;38.90;67.00;;;;;;5070834;28;20041;-74
2023/08/11 14:52:56;;;;;;;3.78;1.50;;;38.70;67.20;;;;;;5071947;28;20503;-73
2023/08/11 14:56:00;;;;;;;3.97;1.60;;;38.70;67.20;;;;;;5072195;28;20033;-73
2023/08/11 15:02:45;;;;;;;2.40;1.40;;;;;;;;;;5071898;28;20055;-73
2023/08/11 17:57:13;;;;;;;5.03;2.30;;;29.80;84.30;;;;;;5093431;28;20071;-73
2023/08/11 18:00:35;;;;;;;17.65;2.55;;;29.70;84.90;;;;;;5093124;28;20047;-73
2023/08/11 18:03:39;;;;;;;11.00;2.20;;;29.60;84.80;;;;;;5093453;28;20032;-73
2023/08/11 18:07:02;;;;;;;4.45;1.73;;;29.60;85.00;;;;;;5093510;28;20043;-73
2023/08/11 18:10:08;;;;;;;5.88;2.08;;;29.40;85.00;;;;;;5093673;28;20048;-73
2023/08/11 18:13:31;;;;;;;10.00;2.10;;;29.40;85.40;;;;;;5092249;28;20040;-73
2023/08/11 18:16:35;;;;;;;9.07;2.63;;;29.40;85.90;;;;;;5079377;28;20540;-73
2023/08/11 18:19:39;;;;;;;8.15;2.25;;;29.30;86.10;;;;;;5101376;28;20035;-73
2023/08/11 18:22:43;;;;;;;7.35;2.10;;;29.30;86.30;;;;;;5113403;28;20043;-73
2023/08/11 18:26:06;;;;;;;3.42;1.75;;;29.20;87.00;;;;;;5113607;28;20039;-73
2023/08/11 18:29:10;;;;;;;5.45;2.50;;;29.10;87.10;;;;;;5113746;28;20035;-72
2023/08/11 18:32:14;;;;;;;5.43;2.20;;;29.00;87.70;;;;;;5112222;28;20385;-73
2023/08/11 18:35:18;;;;;;;6.90;2.10;;;29.00;88.30;;;;;;5113320;28;20043;-73
2023/08/11 18:38:44;;;;;;;8.65;2.38;;;28.90;87.90;;;;;;5113247;28;20043;-73
2023/08/11 18:41:48;;;;;;;4.78;2.50;;;28.80;87.70;;;;;;5112718;28;20047;-73
2023/08/11 18:44:52;;;;;;;2.80;1.95;;;28.60;86.40;;;;;;5113211;28;20393;-73
2023/08/11 18:47:56;;;;;;;4.50;2.20;;;28.50;86.20;;;;;;5112990;28;20047;-73
2023/08/11 18:51:40;;;;;;;11.18;2.30;;;28.30;85.70;;;;;;5112483;28;20047;-73
2023/08/11 18:54:45;;;;;;;3.58;2.00;;;28.30;86.20;;;;;;5114061;28;20038;-73
2023/08/11 19:01:30;;;;;;;7.18;1.90;;;28.00;86.70;;;;;;5072090;28;20487;-73
2023/08/11 19:04:34;;;;;;;38.03;3.67;;;27.90;86.70;;;;;;5072339;28;20044;-73
2023/08/11 19:07:38;;;;;;;4.28;2.30;;;27.70;87.30;;;;;;5072003;28;20517;-72
2023/08/11 19:10:44;;;;;;;6.15;2.20;;;27.70;87.30;;;;;;5086946;28;20054;-73
2023/08/11 19:14:08;;;;;;;4.07;2.15;;;27.60;88.80;;;;;;5090573;28;20044;-73
2023/08/11 19:17:12;;;;;;;4.28;2.20;;;27.50;89.50;;;;;;5087216;28;20637;-72
2023/08/11 20:01:12;;;;;;;4.30;2.20;;;26.20;92.10;;;;;;5096304;28;19919;-73
2023/08/11 20:04:18;;;;;;;5.60;2.20;;;26.10;92.70;;;;;;5085912;28;20501;-72
2023/08/11 20:08:00;;;;;;;4.20;2.10;;;26.00;93.00;;;;;;5092898;28;20043;-72
2023/08/11 20:11:04;;;;;;;5.50;2.38;;;25.90;93.40;;;;;;5079163;28;20032;-73
2023/08/11 20:14:08;;;;;;;8.52;2.47;;;25.70;93.90;;;;;;5091586;28;20044;-73
2023/08/11 20:17:14;;;;;;;6.88;2.25;;;25.60;94.60;;;;;;5089553;28;20461;-73
2023/08/11 20:20:37;;;;;;;7.28;4.05;;;25.50;94.80;;;;;;5091535;28;20043;-72
2023/08/11 20:27:41;;;;;;;5.32;2.70;;;25.40;95.50;;;;;;5085227;28;20043;-73
2023/08/11 20:30:45;;;;;;;4.35;2.60;;;25.30;95.90;;;;;;5070322;28;20055;-71
2023/08/11 20:33:49;;;;;;;5.07;2.30;;;25.20;95.90;;;;;;5089666;28;20047;-73
2023/08/11 20:36:53;;;;;;;4.43;2.45;;;25.10;96.30;;;;;;5070070;28;20044;-72
2023/08/11 20:39:57;;;;;;;8.13;2.80;;;24.90;96.60;;;;;;5070060;28;20522;-73
2023/08/11 20:43:03;;;;;;;5.88;2.70;;;24.80;97.10;;;;;;5069637;28;20502;-73
2023/08/11 20:46:44;;;;;;;18.63;3.35;;;24.70;97.90;;;;;;5089247;28;20149;-73
2023/08/11 20:49:48;;;;;;;4.28;2.95;;;24.60;98.50;;;;;;5087734;28;20047;-73
2023/08/11 20:52:52;;;;;;;2.42;1.85;;;24.50;97.60;;;;;;5094622;28;20047;-73
2023/08/11 20:56:15;;;;;;;4.22;2.08;;;24.40;96.60;;;;;;5090313;28;20055;-72
2023/08/11 20:59:37;;;;;;;4.93;2.85;;;24.30;97.00;;;;;;5070523;28;20502;-73
2023/08/11 21:02:41;;;;;;;5.35;2.00;;;24.10;97.00;;;;;;5070165;28;20047;-74
2023/08/11 21:05:46;;;;;;;2.65;1.48;;;24.00;94.90;;;;;;5070429;28;20044;-73
2023/08/11 21:08:51;;;;;;;3.83;1.85;;;24.00;93.50;;;;;;5058116;28;20043;-73
2023/08/11 21:11:57;;;;;;;5.80;1.75;;;24.00;93.30;;;;;;5074294;28;20047;-73
2023/08/11 21:15:03;;;;;;;3.38;1.70;;;23.90;92.60;;;;;;5081351;28;20039;-73
2023/08/11 21:18:09;;;;;;;7.03;1.67;;;23.90;91.70;;;;;;5094169;28;20046;-72
2023/08/11 21:21:13;;;;;;;2.90;1.63;;;23.80;92.00;;;;;;5094331;28;20042;-73
2023/08/11 21:24:17;;;;;;;3.50;1.50;;;23.70;92.30;;;;;;5093950;28;20051;-73
2023/08/11 21:27:21;;;;;;;3.83;1.67;;;23.70;91.90;;;;;;5094498;28;20043;-73
2023/08/11 21:30:26;;;;;;;2.10;1.40;;;23.70;92.50;;;;;;5081831;28;20390;-73
2023/08/11 21:33:29;;;;;;;2.05;1.40;;;23.70;91.80;;;;;;5092809;28;20885;-73
2023/08/11 21:36:34;;;;;;;2.83;1.65;;;23.70;92.00;;;;;;5092631;28;20075;-73
2023/08/11 21:39:39;;;;;;;2.13;1.40;;;23.60;92.70;;;;;;5093883;28;20039;-73
2023/08/11 21:42:44;;;;;;;4.28;1.33;;;23.60;91.00;;;;;;5093887;28;20047;-74
2023/08/11 21:45:48;;;;;;;2.03;0.95;;;23.50;91.00;;;;;;5093796;28;20039;-73
2023/08/11 21:48:52;;;;;;;1.08;0.80;;;23.40;88.50;;;;;;5093490;28;20043;-72
2023/08/11 21:51:56;;;;;;;1.30;1.10;;;23.30;87.60;;;;;;5085424;28;20043;-72